createdAt,value
2023-05-18T00:01:12.192Z,9.74
2023-05-18T00:03:38.950Z,9.70
2023-05-18T00:06:07.157Z,9.67
2023-05-18T00:08:34.716Z,9.64
2023-05-18T00:11:02.532Z,9.57
2023-05-18T00:13:29.520Z,9.59
2023-05-18T00:15:56.383Z,9.59
2023-05-18T00:18:23.823Z,9.59
2023-05-18T00:21:00.611Z,9.57
2023-05-18T00:23:30.828Z,9.56
2023-05-18T00:25:58.460Z,9.51
2023-05-18T00:28:25.343Z,9.42
2023-05-18T00:30:51.878Z,9.40
2023-05-18T00:33:18.338Z,9.42
2023-05-18T00:35:44.842Z,9.43
2023-05-18T00:38:12.183Z,9.41
2023-05-18T00:40:42.176Z,9.42
2023-05-18T00:43:08.645Z,9.41
2023-05-18T00:45:35.128Z,9.38
2023-05-18T00:48:01.629Z,9.39
2023-05-18T00:50:28.298Z,9.38
2023-05-18T00:52:54.911Z,9.34
2023-05-18T00:55:21.333Z,9.30
2023-05-18T00:57:48.236Z,9.29
2023-05-18T01:00:16.022Z,9.26
2023-05-18T01:02:43.003Z,9.27
2023-05-18T01:05:11.038Z,9.27
2023-05-18T01:07:44.552Z,9.22
2023-05-18T01:10:12.367Z,9.16
2023-05-18T01:12:57.333Z,9.13
2023-05-18T01:15:29.873Z,9.09
2023-05-18T01:18:14.790Z,9.14
2023-05-18T01:20:49.940Z,9.14
2023-05-18T01:23:35.572Z,9.16
2023-05-18T01:26:25.012Z,9.15
2023-05-18T01:28:51.845Z,9.14
2023-05-18T01:31:18.516Z,9.13
2023-05-18T01:33:45.200Z,9.12
2023-05-18T01:36:11.745Z,9.14
2023-05-18T01:38:38.563Z,9.15
2023-05-18T01:41:18.909Z,9.11
2023-05-18T01:44:15.909Z,9.09
2023-05-18T01:47:00.003Z,9.02
2023-05-18T01:49:39.148Z,8.95
2023-05-18T01:52:16.736Z,8.92
2023-05-18T01:54:45.126Z,8.97
2023-05-18T01:57:11.810Z,8.98
2023-05-18T01:59:38.636Z,9.02
2023-05-18T02:02:05.678Z,9.03
2023-05-18T02:04:32.276Z,8.99
2023-05-18T02:06:58.995Z,8.97
2023-05-18T02:09:25.552Z,8.97
2023-05-18T02:11:51.975Z,8.99
2023-05-18T02:14:18.401Z,9.01
2023-05-18T02:16:47.165Z,8.98
2023-05-18T02:19:14.909Z,9.01
2023-05-18T02:21:43.389Z,9.01
2023-05-18T02:24:09.833Z,8.98
2023-05-18T02:26:37.517Z,8.98
2023-05-18T02:29:06.400Z,8.93
2023-05-18T02:31:32.974Z,8.93
2023-05-18T02:33:59.464Z,8.91
2023-05-18T02:36:25.982Z,8.93
2023-05-18T02:38:52.506Z,8.90
2023-05-18T02:41:18.944Z,8.90
2023-05-18T02:43:45.399Z,8.86
2023-05-18T02:46:11.834Z,8.82
2023-05-18T02:48:38.285Z,8.79
2023-05-18T02:51:04.925Z,8.79
2023-05-18T02:53:31.438Z,8.76
2023-05-18T02:55:57.920Z,8.73
2023-05-18T02:58:25.663Z,8.69
2023-05-18T03:00:55.114Z,8.69
2023-05-18T03:03:21.863Z,8.65
2023-05-18T03:05:48.430Z,8.64
2023-05-18T03:08:14.883Z,8.62
2023-05-18T03:10:41.322Z,8.55
2023-05-18T03:13:07.779Z,8.52
2023-05-18T03:15:34.170Z,8.49
2023-05-18T03:18:00.908Z,8.49
2023-05-18T03:20:28.022Z,8.48
2023-05-18T03:22:54.551Z,8.46
2023-05-18T03:25:22.515Z,8.46
2023-05-18T03:27:48.952Z,8.41
2023-05-18T03:30:15.601Z,8.41
2023-05-18T03:32:42.115Z,8.40
2023-05-18T03:35:08.962Z,8.38
2023-05-18T03:37:35.415Z,8.36
2023-05-18T03:40:11.026Z,8.30
2023-05-18T03:42:38.246Z,8.29
2023-05-18T03:45:05.067Z,8.27
2023-05-18T03:47:31.527Z,8.26
2023-05-18T03:49:58.016Z,8.27
2023-05-18T03:52:24.476Z,8.24
2023-05-18T03:54:51.392Z,8.17
2023-05-18T03:57:18.463Z,8.13
2023-05-18T03:59:45.426Z,8.12
2023-05-18T04:02:12.167Z,8.15
2023-05-18T04:04:42.034Z,8.15
2023-05-18T04:07:08.827Z,8.14
2023-05-18T04:09:36.201Z,8.13
2023-05-18T04:12:03.133Z,8.04
2023-05-18T04:14:32.979Z,8.01
2023-05-18T04:17:04.876Z,8.02
2023-05-18T04:19:32.941Z,8.04
2023-05-18T04:21:59.616Z,8.00
2023-05-18T04:24:28.560Z,8.00
2023-05-18T04:26:54.990Z,8.01
2023-05-18T04:29:22.390Z,8.07
2023-05-18T04:31:48.935Z,8.09
2023-05-18T04:34:17.936Z,8.13
2023-05-18T04:36:44.989Z,8.15
2023-05-18T04:39:12.270Z,8.17
2023-05-18T04:41:42.182Z,8.20
2023-05-18T04:44:09.558Z,8.22
2023-05-18T04:46:39.721Z,8.25
2023-05-18T04:49:06.303Z,8.25
2023-05-18T04:51:34.569Z,8.30
2023-05-18T04:54:03.221Z,8.32
2023-05-18T04:56:29.905Z,8.33
2023-05-18T04:58:59.379Z,8.34
2023-05-18T05:01:26.126Z,8.37
2023-05-18T05:03:52.757Z,8.40
2023-05-18T05:06:19.231Z,8.47
2023-05-18T05:08:45.887Z,8.48
2023-05-18T05:11:12.360Z,8.54
2023-05-18T05:13:38.850Z,8.58
2023-05-18T05:16:06.026Z,8.57
2023-05-18T05:18:32.546Z,8.60
2023-05-18T05:20:59.673Z,8.64
2023-05-18T05:23:26.233Z,8.67
2023-05-18T05:25:52.678Z,8.73
2023-05-18T05:28:19.107Z,8.77
2023-05-18T05:30:45.605Z,8.82
2023-05-18T05:33:12.055Z,8.91
2023-05-18T05:35:38.729Z,8.97
2023-05-18T05:38:06.259Z,9.05
2023-05-18T05:40:32.690Z,9.08
2023-05-18T05:42:59.107Z,9.14
2023-05-18T05:45:28.414Z,9.19
2023-05-18T05:47:55.220Z,9.23
2023-05-18T05:50:21.702Z,9.27
2023-05-18T05:52:48.126Z,9.32
2023-05-18T05:55:14.554Z,9.32
2023-05-18T05:57:42.739Z,9.38
2023-05-18T06:00:13.210Z,9.34
2023-05-18T06:02:40.161Z,9.41
2023-05-18T06:05:07.701Z,9.46
2023-05-18T06:07:34.775Z,9.52
2023-05-18T06:10:01.271Z,9.40
2023-05-18T06:12:27.727Z,9.45
2023-05-18T06:14:58.100Z,9.48
2023-05-18T06:17:25.905Z,9.54
2023-05-18T06:19:52.652Z,9.56
2023-05-18T06:22:19.163Z,9.66
2023-05-18T06:24:45.704Z,9.74
2023-05-18T06:27:12.409Z,9.83
2023-05-18T06:29:38.874Z,9.79
2023-05-18T06:32:06.121Z,9.72
2023-05-18T06:34:32.823Z,9.75
2023-05-18T06:36:59.285Z,9.82
2023-05-18T06:39:26.860Z,9.84
2023-05-18T06:41:53.306Z,9.94
2023-05-18T06:44:19.786Z,9.96
2023-05-18T06:46:47.586Z,10.05
2023-05-18T06:49:13.993Z,10.14
2023-05-18T06:51:41.579Z,10.08
2023-05-18T06:54:08.487Z,10.03
2023-05-18T06:56:34.958Z,10.02
2023-05-18T06:59:01.456Z,10.01
2023-05-18T07:01:28.024Z,10.06
2023-05-18T07:03:54.474Z,10.11
2023-05-18T07:06:21.017Z,10.20
2023-05-18T07:08:47.945Z,10.17
2023-05-18T07:11:14.809Z,10.15
2023-05-18T07:13:42.182Z,10.13
2023-05-18T07:16:08.748Z,10.09
2023-05-18T07:18:35.369Z,10.08
2023-05-18T07:21:01.849Z,10.16
2023-05-18T07:23:28.670Z,10.33
2023-05-18T07:25:55.140Z,10.48
2023-05-18T07:28:22.220Z,10.59
2023-05-18T07:30:48.820Z,10.65
2023-05-18T07:33:15.370Z,10.66
2023-05-18T07:35:41.823Z,10.59
2023-05-18T07:38:08.323Z,10.50
2023-05-18T07:40:35.058Z,10.58
2023-05-18T07:43:01.547Z,10.66
2023-05-18T07:45:28.207Z,10.69
2023-05-18T07:47:55.218Z,10.83
2023-05-18T07:50:21.841Z,11.04
2023-05-18T07:52:48.287Z,11.21
2023-05-18T07:55:14.717Z,11.14
2023-05-18T07:57:41.237Z,11.27
2023-05-18T08:00:09.538Z,11.33
2023-05-18T08:02:36.098Z,11.27
2023-05-18T08:05:02.796Z,11.20
2023-05-18T08:07:29.963Z,11.21
2023-05-18T08:09:57.055Z,11.08
2023-05-18T08:12:24.462Z,11.15
2023-05-18T08:14:51.385Z,11.17
2023-05-18T08:17:19.535Z,11.20
2023-05-18T08:19:47.372Z,11.37
2023-05-18T08:22:14.935Z,11.28
2023-05-18T08:24:41.611Z,11.26
2023-05-18T08:27:09.908Z,11.25
2023-05-18T08:29:36.339Z,11.35
2023-05-18T08:32:02.826Z,11.46
2023-05-18T08:34:30.104Z,11.59
2023-05-18T08:36:56.631Z,11.61
2023-05-18T08:39:23.040Z,11.57
2023-05-18T08:42:17.661Z,11.55
2023-05-18T08:44:49.044Z,11.69
2023-05-18T08:47:16.631Z,11.75
2023-05-18T08:49:43.388Z,11.81
2023-05-18T08:52:10.398Z,12.03
2023-05-18T08:54:37.770Z,12.10
2023-05-18T08:57:09.435Z,12.10
2023-05-18T08:59:41.100Z,12.05
2023-05-18T09:02:08.081Z,12.14
2023-05-18T09:04:35.258Z,12.20
2023-05-18T09:07:03.647Z,12.23
2023-05-18T09:09:30.744Z,12.41
2023-05-18T09:11:57.356Z,12.43
2023-05-18T09:14:25.954Z,12.33
2023-05-18T09:16:53.424Z,12.24
2023-05-18T09:19:20.156Z,12.38
2023-05-18T09:21:46.977Z,12.61
2023-05-18T09:24:13.854Z,12.75
2023-05-18T09:26:40.630Z,12.87
2023-05-18T09:29:19.087Z,13.16
2023-05-18T09:31:46.777Z,13.13
2023-05-18T09:34:14.183Z,13.32
2023-05-18T09:36:40.808Z,13.50
2023-05-18T09:39:11.028Z,13.71
2023-05-18T09:41:39.731Z,13.92
2023-05-18T09:44:09.627Z,14.08
2023-05-18T09:46:39.935Z,14.29
2023-05-18T09:49:07.149Z,14.57
2023-05-18T09:51:37.690Z,14.42
2023-05-18T09:54:07.416Z,14.20
2023-05-18T09:56:37.622Z,14.21
2023-05-18T09:59:11.748Z,14.41
2023-05-18T10:01:45.583Z,14.44
2023-05-18T10:04:12.057Z,14.50
2023-05-18T10:06:38.549Z,14.63
2023-05-18T10:09:15.579Z,14.61
2023-05-18T10:11:42.105Z,14.51
2023-05-18T10:14:11.273Z,14.39
2023-05-18T10:16:38.144Z,14.48
2023-05-18T10:19:06.347Z,14.53
2023-05-18T10:21:34.358Z,14.70
2023-05-18T10:24:03.851Z,14.79
2023-05-18T10:26:30.725Z,14.57
2023-05-18T10:28:59.578Z,14.63
2023-05-18T10:31:27.925Z,14.73
2023-05-18T10:33:54.713Z,14.78
2023-05-18T10:36:22.431Z,15.00
2023-05-18T10:38:49.405Z,15.17
2023-05-18T10:41:18.825Z,15.20
2023-05-18T10:43:45.983Z,15.36
2023-05-18T10:46:13.885Z,15.42
2023-05-18T10:48:40.847Z,15.50
2023-05-18T10:51:08.039Z,15.69
2023-05-18T10:53:34.837Z,15.72
2023-05-18T10:56:01.625Z,15.72
2023-05-18T10:58:29.795Z,15.54
2023-05-18T11:00:58.918Z,15.59
2023-05-18T11:03:27.074Z,15.59
2023-05-18T11:06:05.235Z,15.24
2023-05-18T11:08:31.768Z,15.15
2023-05-18T11:11:07.497Z,15.61
2023-05-18T11:13:35.668Z,15.67
2023-05-18T11:16:05.045Z,15.97
2023-05-18T11:18:43.844Z,16.31
2023-05-18T11:21:29.460Z,16.54
2023-05-18T11:24:16.345Z,16.69
2023-05-18T11:26:44.718Z,16.75
2023-05-18T11:29:23.020Z,16.66
2023-05-18T11:31:52.056Z,16.52
2023-05-18T11:34:35.496Z,16.47
2023-05-18T11:37:03.813Z,16.64
2023-05-18T11:39:30.384Z,16.76
2023-05-18T11:42:08.549Z,16.87
2023-05-18T11:44:35.284Z,16.94
2023-05-18T11:47:09.319Z,16.73
2023-05-18T11:49:44.853Z,16.81
2023-05-18T11:52:22.377Z,16.74
2023-05-18T11:55:01.214Z,17.05
2023-05-18T11:57:33.637Z,17.25
2023-05-18T12:00:01.423Z,17.38
2023-05-18T12:02:32.233Z,17.34
2023-05-18T12:05:00.751Z,17.16
2023-05-18T12:07:28.377Z,17.27
2023-05-18T12:10:04.941Z,17.43
2023-05-18T12:12:31.646Z,17.50
2023-05-18T12:14:59.678Z,17.69
2023-05-18T12:17:42.712Z,17.71
2023-05-18T12:20:11.990Z,17.91
2023-05-18T12:22:52.880Z,18.14
2023-05-18T12:25:20.168Z,18.13
2023-05-18T12:27:48.083Z,18.14
2023-05-18T12:30:22.166Z,17.99
2023-05-18T12:32:50.881Z,17.83
2023-05-18T12:35:17.974Z,17.84
2023-05-18T12:37:46.271Z,17.73
2023-05-18T12:40:17.998Z,17.81
2023-05-18T12:42:57.348Z,18.00
2023-05-18T12:45:28.308Z,18.07
2023-05-18T12:47:56.192Z,18.32
2023-05-18T12:50:24.942Z,18.52
2023-05-18T12:52:51.640Z,18.14
2023-05-18T12:55:21.806Z,18.37
2023-05-18T12:58:14.488Z,18.79
2023-05-18T13:00:43.475Z,19.12
2023-05-18T13:03:15.779Z,19.27
2023-05-18T13:05:44.681Z,19.06
2023-05-18T13:08:22.145Z,19.25
2023-05-18T13:10:58.103Z,19.58
2023-05-18T13:13:32.121Z,19.87
2023-05-18T13:15:59.510Z,20.05
2023-05-18T13:18:28.697Z,20.03
2023-05-18T13:20:56.489Z,20.15
2023-05-18T13:23:29.956Z,20.04
2023-05-18T13:25:58.686Z,20.00
2023-05-18T13:28:25.499Z,20.24
2023-05-18T13:30:51.957Z,20.49
2023-05-18T13:33:19.269Z,20.70
2023-05-18T13:35:46.312Z,20.74
2023-05-18T13:38:13.776Z,20.42
2023-05-18T13:40:41.131Z,20.29
2023-05-18T13:43:08.232Z,20.09
2023-05-18T13:45:36.109Z,19.80
2023-05-18T13:48:09.378Z,20.09
2023-05-18T13:50:36.765Z,20.46
2023-05-18T13:53:03.374Z,20.60
2023-05-18T13:55:29.977Z,20.73
2023-05-18T13:57:56.912Z,20.89
2023-05-18T14:00:23.377Z,20.94
2023-05-18T14:02:49.947Z,21.04
2023-05-18T14:05:16.528Z,21.18
2023-05-18T14:07:43.128Z,21.24
2023-05-18T14:10:10.914Z,21.25
2023-05-18T14:12:37.577Z,21.44
2023-05-18T14:15:04.883Z,21.51
2023-05-18T14:17:32.420Z,21.56
2023-05-18T14:19:59.351Z,21.50
2023-05-18T14:22:26.305Z,21.63
2023-05-18T14:24:53.151Z,21.21
2023-05-18T14:27:22.949Z,21.17
2023-05-18T14:29:50.459Z,21.13
2023-05-18T14:32:17.518Z,21.24
2023-05-18T14:34:43.933Z,21.28
2023-05-18T14:37:10.615Z,21.36
2023-05-18T14:39:37.809Z,21.13
2023-05-18T14:42:05.089Z,21.03
2023-05-18T14:44:31.672Z,20.89
2023-05-18T14:46:58.207Z,20.96
2023-05-18T14:49:24.737Z,20.87
2023-05-18T14:51:51.278Z,20.86
2023-05-18T14:54:19.061Z,20.97
2023-05-18T14:56:45.673Z,21.10
2023-05-18T14:59:12.194Z,21.11
2023-05-18T15:01:38.733Z,21.18
2023-05-18T15:04:05.463Z,21.16
2023-05-18T15:06:33.244Z,20.85
2023-05-18T15:08:59.872Z,20.69
2023-05-18T15:11:26.415Z,20.70
2023-05-18T15:13:52.907Z,20.75
2023-05-18T15:16:19.917Z,20.75
2023-05-18T15:18:47.087Z,20.98
2023-05-18T15:21:13.583Z,21.10
2023-05-18T15:23:40.051Z,21.06
2023-05-18T15:26:08.920Z,20.95
2023-05-18T15:28:35.921Z,20.88
2023-05-18T15:31:02.423Z,20.91
2023-05-18T15:33:28.962Z,20.88
2023-05-18T15:35:55.592Z,21.01
2023-05-18T15:38:22.081Z,21.07
2023-05-18T15:40:50.333Z,21.05
2023-05-18T15:43:16.947Z,21.22
2023-05-18T15:45:43.402Z,21.28
2023-05-18T15:48:09.884Z,21.15
2023-05-18T15:50:36.346Z,21.23
2023-05-18T15:53:02.795Z,21.30
2023-05-18T15:55:29.259Z,21.41
2023-05-18T15:57:55.759Z,21.32
2023-05-18T16:00:23.704Z,21.32
2023-05-18T16:02:50.309Z,21.36
2023-05-18T16:05:16.850Z,21.44
2023-05-18T16:07:43.715Z,21.54
2023-05-18T16:10:10.420Z,21.43
2023-05-18T16:12:36.877Z,21.42
2023-05-18T16:15:03.337Z,21.26
2023-05-18T16:17:29.858Z,21.31
2023-05-18T16:19:56.669Z,21.37
2023-05-18T16:22:23.120Z,21.29
2023-05-18T16:24:49.795Z,21.12
2023-05-18T16:27:16.282Z,20.81
2023-05-18T16:29:42.782Z,20.70
2023-05-18T16:32:09.285Z,20.60
2023-05-18T16:34:35.724Z,20.61
2023-05-18T16:37:02.214Z,20.71
2023-05-18T16:39:28.652Z,20.77
2023-05-18T16:41:55.123Z,20.70
2023-05-18T16:44:21.577Z,20.56
2023-05-18T16:46:48.180Z,20.65
2023-05-18T16:49:14.696Z,20.49
2023-05-18T16:51:49.961Z,20.46
2023-05-18T16:54:16.497Z,20.52
2023-05-18T16:56:43.004Z,20.57
2023-05-18T16:59:09.422Z,20.63
2023-05-18T17:01:35.906Z,20.61
2023-05-18T17:04:02.533Z,20.63
2023-05-18T17:06:29.092Z,20.69
2023-05-18T17:08:58.078Z,20.12
2023-05-18T17:11:26.842Z,19.79
2023-05-18T17:13:53.604Z,19.51
2023-05-18T17:16:21.620Z,19.33
2023-05-18T17:18:48.811Z,19.50
2023-05-18T17:21:15.907Z,19.46
2023-05-18T17:23:42.374Z,19.28
2023-05-18T17:26:08.859Z,19.38
2023-05-18T17:28:35.520Z,19.42
2023-05-18T17:31:02.018Z,19.14
2023-05-18T17:33:28.426Z,19.14
2023-05-18T17:35:55.135Z,18.93
2023-05-18T17:38:22.628Z,18.92
2023-05-18T17:40:49.152Z,18.72
2023-05-18T17:43:15.651Z,18.60
2023-05-18T17:45:42.197Z,18.65
2023-05-18T17:48:08.847Z,18.80
2023-05-18T17:50:37.531Z,18.73
2023-05-18T17:53:04.837Z,18.80
2023-05-18T17:55:31.561Z,18.87
2023-05-18T17:58:00.837Z,18.60
2023-05-18T18:00:27.435Z,18.48
2023-05-18T18:02:55.123Z,18.49
2023-05-18T18:05:21.685Z,18.48
2023-05-18T18:07:48.140Z,18.51
2023-05-18T18:10:14.603Z,18.53
2023-05-18T18:12:41.097Z,18.54
2023-05-18T18:15:07.988Z,18.58
2023-05-18T18:17:34.555Z,18.62
2023-05-18T18:20:01.084Z,18.52
2023-05-18T18:22:27.816Z,18.41
2023-05-18T18:24:55.508Z,18.51
2023-05-18T18:27:23.040Z,18.58
2023-05-18T18:29:49.544Z,18.58
2023-05-18T18:32:16.625Z,18.60
2023-05-18T18:34:43.023Z,18.62
2023-05-18T18:37:09.486Z,18.52
2023-05-18T18:39:35.948Z,18.50
2023-05-18T18:42:02.586Z,18.36
2023-05-18T18:44:29.049Z,18.30
2023-05-18T18:46:55.665Z,18.23
2023-05-18T18:49:22.182Z,18.10
2023-05-18T18:51:48.730Z,18.07
2023-05-18T18:54:15.202Z,17.99
2023-05-18T18:56:43.852Z,17.94
2023-05-18T18:59:10.361Z,17.93
2023-05-18T19:01:38.484Z,17.88
2023-05-18T19:04:05.021Z,17.84
2023-05-18T19:06:31.996Z,17.76
2023-05-18T19:08:58.473Z,17.66
2023-05-18T19:11:24.950Z,17.62
2023-05-18T19:13:51.537Z,17.59
2023-05-18T19:16:18.237Z,17.50
2023-05-18T19:18:45.155Z,17.45
2023-05-18T19:21:11.750Z,17.34
2023-05-18T19:23:38.166Z,17.17
2023-05-18T19:26:04.634Z,17.04
2023-05-18T19:28:31.483Z,16.96
2023-05-18T19:30:57.944Z,16.91
2023-05-18T19:33:24.377Z,16.83
2023-05-18T19:35:52.741Z,16.72
2023-05-18T19:38:19.390Z,16.62
2023-05-18T19:40:45.869Z,16.58
2023-05-18T19:43:12.353Z,16.51
2023-05-18T19:45:38.888Z,16.42
2023-05-18T19:48:05.569Z,16.31
2023-05-18T19:50:32.068Z,16.11
2023-05-18T19:52:58.472Z,16.06
2023-05-18T19:55:24.862Z,15.97
2023-05-18T19:57:51.342Z,15.90
2023-05-18T20:00:18.072Z,15.94
2023-05-18T20:02:44.555Z,15.86
2023-05-18T20:05:12.523Z,15.77
2023-05-18T20:07:39.306Z,15.78
2023-05-18T20:10:06.033Z,15.71
2023-05-18T20:12:32.486Z,15.64
2023-05-18T20:14:59.119Z,15.63
2023-05-18T20:17:25.902Z,15.53
2023-05-18T20:19:53.399Z,15.46
2023-05-18T20:22:20.311Z,15.45
2023-05-18T20:24:46.947Z,15.41
2023-05-18T20:27:14.603Z,15.38
2023-05-18T20:29:41.345Z,15.36
2023-05-18T20:32:07.781Z,15.32
2023-05-18T20:34:34.637Z,15.24
2023-05-18T20:37:01.116Z,15.20
2023-05-18T20:39:29.055Z,15.06
2023-05-18T20:41:57.583Z,14.89
2023-05-18T20:44:24.912Z,14.77
2023-05-18T20:46:53.043Z,14.69
2023-05-18T20:49:22.285Z,14.62
2023-05-18T20:51:49.119Z,14.61
2023-05-18T20:54:17.812Z,14.60
2023-05-18T20:56:44.443Z,14.53
2023-05-18T20:59:12.607Z,14.51
2023-05-18T21:01:40.002Z,14.45
2023-05-18T21:04:07.136Z,14.37
2023-05-18T21:06:34.337Z,14.30
2023-05-18T21:09:01.392Z,14.27
2023-05-18T21:11:27.990Z,14.27
2023-05-18T21:13:54.405Z,14.25
2023-05-18T21:16:21.135Z,14.18
2023-05-18T21:18:47.594Z,14.13
2023-05-18T21:21:14.012Z,14.05
2023-05-18T21:23:40.469Z,14.01
2023-05-18T21:26:06.952Z,13.97
2023-05-18T21:28:34.531Z,13.92
2023-05-18T21:31:01.190Z,13.87
2023-05-18T21:33:27.661Z,13.81
2023-05-18T21:35:54.221Z,13.79
2023-05-18T21:38:20.759Z,13.76
2023-05-18T21:40:47.229Z,13.69
2023-05-18T21:43:13.706Z,13.63
2023-05-18T21:45:40.545Z,13.58
2023-05-18T21:48:07.807Z,13.56
2023-05-18T21:50:34.926Z,13.48
2023-05-18T21:53:03.120Z,13.49
2023-05-18T21:55:31.161Z,13.44
2023-05-18T21:57:57.686Z,13.41
2023-05-18T22:00:24.106Z,13.33
2023-05-18T22:02:50.612Z,13.27
2023-05-18T22:05:18.522Z,13.24
2023-05-18T22:07:46.042Z,13.18
2023-05-18T22:10:12.654Z,13.12
2023-05-18T22:12:41.042Z,13.07
2023-05-18T22:15:08.659Z,13.03
2023-05-18T22:17:36.591Z,12.99
2023-05-18T22:20:06.439Z,12.94
2023-05-18T22:22:32.907Z,12.97
2023-05-18T22:24:59.338Z,12.93
2023-05-18T22:27:25.913Z,12.84
2023-05-18T22:29:52.316Z,12.80
2023-05-18T22:32:19.270Z,12.78
2023-05-18T22:34:45.817Z,12.75
2023-05-18T22:37:12.234Z,12.72
2023-05-18T22:39:38.685Z,12.71
2023-05-18T22:42:05.350Z,12.70
2023-05-18T22:44:31.762Z,12.66
2023-05-18T22:46:58.701Z,12.63
2023-05-18T22:49:25.160Z,12.55
2023-05-18T22:51:52.560Z,12.52
2023-05-18T22:54:19.051Z,12.49
2023-05-18T22:56:45.559Z,12.45
2023-05-18T22:59:12.063Z,12.43
2023-05-18T23:01:38.698Z,12.34
2023-05-18T23:04:05.345Z,12.32
2023-05-18T23:06:31.952Z,12.28
2023-05-18T23:09:00.463Z,12.22
2023-05-18T23:11:28.481Z,12.13
2023-05-18T23:13:55.053Z,11.97
2023-05-18T23:16:22.535Z,11.84
2023-05-18T23:18:50.526Z,11.83
2023-05-18T23:21:17.086Z,11.86
2023-05-18T23:23:45.530Z,11.87
2023-05-18T23:26:12.511Z,11.85
2023-05-18T23:28:38.947Z,11.68
2023-05-18T23:31:05.431Z,11.63
2023-05-18T23:33:32.214Z,11.62
2023-05-18T23:36:02.397Z,11.62
2023-05-18T23:38:34.583Z,11.62
2023-05-18T23:41:02.732Z,11.49
2023-05-18T23:43:29.400Z,11.50
2023-05-18T23:45:56.767Z,11.39
2023-05-18T23:48:24.059Z,11.32
2023-05-18T23:50:53.271Z,11.28
2023-05-18T23:53:21.804Z,11.26
2023-05-18T23:55:49.601Z,11.17
2023-05-18T23:58:17.721Z,11.07
